Time;durP1;ratioP1;P1;durP2;ratioP2;P2;SDS_P1;SDS_P2;PMS_P1;PMS_P2;Temp;Humidity;BMP_temperature;BMP_pressure;BME280_temperature;BME280_humidity;BME280_pressure;Samples;Min_cycle;Max_cycle;Signal;HPM_P1;HPM_P2
2023/05/12 00:01:34;;;;;;;13.63;6.70;;;;;;;10.84;100.00;102044.53;5058634;28;20168;-95
2023/05/12 00:04:15;;;;;;;11.52;5.50;;;;;;;10.95;100.00;102024.22;5088028;28;20055;-94
2023/05/12 00:06:55;;;;;;;14.82;6.07;;;;;;;10.91;100.00;102021.72;5087754;28;20041;-95
2023/05/12 00:09:36;;;;;;;10.25;4.90;;;;;;;10.89;100.00;102013.88;5051468;28;20049;-92
2023/05/12 00:12:16;;;;;;;13.60;4.28;;;;;;;10.81;100.00;101997.41;5077615;28;20053;-90
2023/05/12 00:14:57;;;;;;;10.90;5.38;;;;;;;10.88;100.00;102014.75;5056560;28;20057;-92
2023/05/12 00:17:38;;;;;;;11.90;6.03;;;;;;;10.70;100.00;102004.63;5085305;28;20055;-94
2023/05/12 00:20:18;;;;;;;14.38;6.90;;;;;;;10.80;100.00;102019.25;5085526;28;20049;-93
2023/05/12 00:22:59;;;;;;;13.05;4.97;;;;;;;10.73;100.00;102026.38;5054457;28;20071;-92
2023/05/12 00:25:39;;;;;;;12.90;5.15;;;;;;;10.78;100.00;102028.91;5056833;28;20068;-94
2023/05/12 00:28:20;;;;;;;12.60;5.32;;;;;;;10.81;100.00;102029.72;5056517;28;20045;-94
2023/05/12 00:31:05;;;;;;;12.10;5.95;;;;;;;10.95;100.00;102050.44;5057555;28;20037;-94
2023/05/12 00:33:45;;;;;;;11.48;5.68;;;;;;;11.13;100.00;102056.22;5055175;28;20049;-94
2023/05/12 00:36:26;;;;;;;11.02;5.22;;;;;;;10.60;100.00;101998.66;5056087;28;20049;-94
2023/05/12 00:39:07;;;;;;;11.02;5.40;;;;;;;11.01;100.00;102065.19;5086750;28;20060;-95
2023/05/12 00:41:57;;;;;;;11.18;6.13;;;;;;;10.71;100.00;102037.75;5043937;28;20051;-94
2023/05/12 00:44:38;;;;;;;12.38;6.30;;;;;;;10.96;100.00;102070.53;5056150;28;20043;-94
2023/05/12 00:47:19;;;;;;;10.50;5.78;;;;;;;10.87;100.00;102070.69;5055991;28;20053;-93
2023/05/12 00:50:01;;;;;;;11.20;5.75;;;;;;;10.95;100.00;102073.16;5041053;28;20055;-94
2023/05/12 00:52:42;;;;;;;11.40;5.95;;;;;;;10.74;100.00;102030.72;5056803;28;20045;-94
2023/05/12 00:55:23;;;;;;;11.05;5.93;;;;;;;10.64;100.00;102016.03;5057803;28;20056;-94
2023/05/12 00:58:04;;;;;;;10.73;5.63;;;;;;;11.04;100.00;102052.03;5066395;28;20073;-94
2023/05/12 01:00:44;;;;;;;10.65;5.45;;;;;;;10.75;100.00;102031.59;5066857;28;20037;-94
2023/05/12 01:03:25;;;;;;;10.93;5.55;;;;;;;10.93;100.00;102067.09;5073732;28;20036;-94
2023/05/12 01:06:15;;;;;;;12.90;5.68;;;;;;;10.78;100.00;102045.50;5086605;28;20069;-93
2023/05/12 01:08:56;;;;;;;11.32;6.18;;;;;;;10.86;100.00;102079.44;5057125;28;20025;-95
2023/05/12 01:11:37;;;;;;;12.05;6.25;;;;;;;10.73;100.00;102046.47;5072596;28;20071;-93
2023/05/12 01:14:18;;;;;;;13.57;5.88;;;;;;;10.94;100.00;102053.97;5052275;28;20109;-94
2023/05/12 01:17:02;;;;;;;13.45;7.40;;;;;;;10.64;100.00;102052.72;5053198;28;20033;-93
2023/05/12 01:19:45;;;;;;;12.63;6.95;;;;;;;10.88;100.00;102061.06;5037377;28;20073;-95
2023/05/12 01:22:30;;;;;;;11.70;6.25;;;;;;;10.48;100.00;101997.09;5065747;28;20045;-93
2023/05/12 01:25:12;;;;;;;16.90;7.55;;;;;;;10.69;100.00;102057.88;5036438;28;20041;-93
2023/05/12 01:27:53;;;;;;;13.05;7.55;;;;;;;10.87;100.00;102051.47;5021534;28;20075;-94
2023/05/12 01:30:34;;;;;;;12.15;6.32;;;;;;;11.08;100.00;102056.31;5037593;28;20050;-96
2023/05/12 01:33:15;;;;;;;12.45;6.90;;;;;;;10.73;100.00;102030.75;5039919;28;20041;-94
2023/05/12 01:35:56;;;;;;;12.40;6.50;;;;;;;11.04;100.00;102062.50;5037461;28;20055;-95
2023/05/12 01:38:37;;;;;;;13.88;7.53;;;;;;;10.72;100.00;102031.66;5038332;28;20049;-95
2023/05/12 01:41:17;;;;;;;11.50;6.60;;;;;;;10.97;100.00;102055.66;5037212;28;20045;-93
2023/05/12 01:43:58;;;;;;;11.57;5.75;;;;;;;11.18;100.00;102067.50;5047334;28;20110;-93
2023/05/12 01:46:38;;;;;;;11.90;6.50;;;;;;;11.11;100.00;102043.16;5071041;28;20045;-96
2023/05/12 01:49:19;;;;;;;14.43;8.18;;;;;;;11.03;100.00;102047.69;5056619;28;20061;-93
2023/05/12 01:52:00;;;;;;;12.15;6.70;;;;;;;11.01;100.00;102021.50;5056794;28;20048;-95
2023/05/12 01:54:40;;;;;;;12.57;7.20;;;;;;;11.17;100.00;102060.50;5056852;28;20033;-94
2023/05/12 01:57:21;;;;;;;14.48;7.68;;;;;;;11.06;100.00;102055.47;5057380;28;20048;-94
2023/05/12 02:00:03;;;;;;;12.40;6.97;;;;;;;11.25;100.00;102068.25;5086121;28;20466;-94
2023/05/12 02:02:44;;;;;;;14.90;8.77;;;;;;;11.04;100.00;102036.28;5042631;28;20474;-95
2023/05/12 02:05:25;;;;;;;11.93;6.80;;;;;;;11.27;100.00;102072.56;5057741;28;20057;-95
2023/05/12 02:08:06;;;;;;;11.90;6.10;;;;;;;11.17;100.00;102055.28;5057057;28;20028;-95
2023/05/12 02:10:46;;;;;;;12.85;7.45;;;;;;;10.85;100.00;101998.22;5056349;28;20060;-95
2023/05/12 02:13:27;;;;;;;11.98;6.65;;;;;;;11.27;100.00;102072.56;5057912;28;20053;-95
2023/05/12 02:16:08;;;;;;;10.82;5.88;;;;;;;11.36;100.00;102076.75;5057137;28;20037;-94
2023/05/12 02:18:48;;;;;;;12.45;7.03;;;;;;;11.17;100.00;102048.28;5042471;28;20037;-96
2023/05/12 02:21:30;;;;;;;11.23;6.07;;;;;;;11.07;100.00;102048.50;5057267;28;20045;-95
2023/05/12 02:24:10;;;;;;;12.70;6.65;;;;;;;10.99;100.00;102046.00;5055439;28;20136;-95
2023/05/12 02:26:51;;;;;;;13.90;6.25;;;;;;;11.28;100.00;102100.53;5056717;28;20053;-95
2023/05/12 02:29:32;;;;;;;11.05;5.30;;;;;;;10.99;100.00;102025.88;5056387;28;20045;-95
2023/05/12 02:32:12;;;;;;;11.38;5.80;;;;;;;11.11;100.00;102058.88;5056702;28;20045;-94
2023/05/12 02:34:55;;;;;;;10.55;5.30;;;;;;;11.28;100.00;102081.28;5056879;28;20045;-94
2023/05/12 02:37:36;;;;;;;11.10;5.72;;;;;;;11.15;100.00;102072.78;5071199;28;20053;-93
2023/05/12 02:40:17;;;;;;;10.88;5.50;;;;;;;11.11;100.00;102053.63;5055593;28;20080;-94
2023/05/12 02:42:57;;;;;;;9.60;4.50;;;;;;;11.14;100.00;102068.47;5041204;28;20049;-95
2023/05/12 02:45:38;;;;;;;11.07;5.57;;;;;;;10.78;100.00;102044.63;5053784;28;20056;-94
2023/05/12 02:48:19;;;;;;;10.32;5.03;;;;;;;10.94;100.00;102058.31;5035177;28;20045;-94
2023/05/12 02:51:00;;;;;;;10.10;5.28;;;;;;;11.31;100.00;102116.16;5035067;28;20046;-95
2023/05/12 02:53:40;;;;;;;10.95;5.45;;;;;;;11.33;100.00;102124.91;5063626;28;20064;-94
2023/05/12 02:56:21;;;;;;;12.10;6.07;;;;;;;11.15;100.00;102078.88;5061631;28;20068;-94
2023/05/12 02:59:01;;;;;;;12.45;6.45;;;;;;;11.06;100.00;102076.44;5033336;28;20063;-95
2023/05/12 03:01:42;;;;;;;11.35;5.38;;;;;;;11.18;100.00;102091.09;5033399;28;20403;-95
2023/05/12 03:04:23;;;;;;;9.90;4.93;;;;;;;11.20;100.00;102060.47;5046374;28;20049;-93
2023/05/12 03:07:03;;;;;;;11.65;6.25;;;;;;;11.40;100.00;102109.88;5051979;28;20052;-95
2023/05/12 03:09:44;;;;;;;13.32;6.95;;;;;;;11.36;100.00;102113.47;5051958;28;20056;-94
2023/05/12 03:12:25;;;;;;;15.13;7.82;;;;;;;10.96;100.00;102048.66;5052396;28;20479;-94
2023/05/12 03:15:06;;;;;;;10.77;5.93;;;;;;;11.15;100.00;102083.28;5052496;28;20053;-94
2023/05/12 03:17:47;;;;;;;14.40;8.25;;;;;;;11.26;100.00;102120.66;5069482;28;20067;-94
2023/05/12 03:20:28;;;;;;;12.00;6.78;;;;;;;11.07;100.00;102106.16;5052327;28;20075;-94
2023/05/12 03:23:09;;;;;;;11.55;6.07;;;;;;;11.21;100.00;102133.84;5049531;28;20037;-94
2023/05/12 03:25:50;;;;;;;11.15;6.00;;;;;;;11.16;100.00;102104.22;5036988;28;20029;-94
2023/05/12 03:28:31;;;;;;;12.52;7.13;;;;;;;11.10;100.00;102103.47;5083523;28;20049;-95
2023/05/12 03:31:11;;;;;;;12.13;6.13;;;;;;;11.23;100.00;102115.47;5078637;28;20055;-93
2023/05/12 03:33:52;;;;;;;14.13;7.70;;;;;;;11.04;100.00;102087.84;5046807;28;20076;-93
2023/05/12 03:36:32;;;;;;;14.10;7.10;;;;;;;11.17;100.00;102129.56;5053016;28;20072;-95
2023/05/12 03:39:13;;;;;;;13.40;6.45;;;;;;;11.32;100.00;102149.38;5055813;28;20052;-94
2023/05/12 03:41:54;;;;;;;11.88;6.40;;;;;;;11.22;100.00;102116.34;5040977;28;20041;-95
2023/05/12 03:44:34;;;;;;;14.27;6.63;;;;;;;11.10;100.00;102111.31;5056583;28;20029;-95
2023/05/12 03:47:15;;;;;;;11.55;5.47;;;;;;;11.18;100.00;102120.78;5054549;28;20053;-95
2023/05/12 03:49:57;;;;;;;10.60;5.43;;;;;;;11.18;100.00;102151.38;5054552;28;20101;-95
2023/05/12 03:52:40;;;;;;;13.13;5.93;;;;;;;10.98;100.00;102125.53;5054263;28;20076;-94
2023/05/12 03:55:20;;;;;;;12.13;6.10;;;;;;;10.88;100.00;102126.56;5054433;28;20045;-95
2023/05/12 03:58:01;;;;;;;12.13;5.97;;;;;;;10.96;100.00;102132.53;5053607;28;20041;-95
2023/05/12 04:00:42;;;;;;;10.95;5.85;;;;;;;10.95;100.00;102141.28;5053028;28;20041;-94
2023/05/12 04:03:22;;;;;;;10.68;5.53;;;;;;;10.95;100.00;102157.03;5053372;28;20079;-95
2023/05/12 04:06:03;;;;;;;11.48;4.78;;;;;;;11.17;100.00;102176.75;5053143;28;20056;-94
2023/05/12 04:08:44;;;;;;;10.02;5.13;;;;;;;10.94;100.00;102139.56;5080767;28;20135;-96
2023/05/12 04:11:24;;;;;;;9.82;5.25;;;;;;;10.94;100.00;102153.53;5052712;28;20517;-93
2023/05/12 04:14:05;;;;;;;11.43;6.25;;;;;;;10.75;100.00;102128.53;5084032;28;20048;-94
2023/05/12 04:16:47;;;;;;;12.90;6.00;;;;;;;10.88;100.00;102139.66;5052049;28;20537;-94
2023/05/12 04:19:27;;;;;;;15.25;6.30;;;;;;;10.92;100.00;102152.69;5081305;28;20079;-92
2023/05/12 04:22:08;;;;;;;12.00;6.43;;;;;;;10.93;100.00;102156.19;5081675;28;20045;-93
2023/05/12 04:24:49;;;;;;;10.45;5.15;;;;;;;11.27;100.00;102176.56;5083100;28;20116;-93
2023/05/12 04:27:29;;;;;;;10.75;5.68;;;;;;;11.08;100.00;102169.00;5052800;28;20072;-94
2023/05/12 04:30:10;;;;;;;11.00;5.50;;;;;;;11.27;100.00;102185.31;5054607;28;20116;-95
2023/05/12 04:32:51;;;;;;;10.02;4.90;;;;;;;11.35;100.00;102196.53;5054157;28;20056;-94
2023/05/12 04:35:31;;;;;;;9.73;4.43;;;;;;;11.23;100.00;102182.78;5039432;28;20064;-93
2023/05/12 04:38:12;;;;;;;13.00;6.35;;;;;;;11.04;100.00;102176.97;5053751;28;20049;-94
2023/05/12 04:40:59;;;;;;;12.10;6.35;;;;;;;11.30;100.00;102208.84;5053871;28;20059;-94
2023/05/12 04:43:40;;;;;;;11.23;5.30;;;;;;;11.36;100.00;102207.88;5055499;28;20117;-94
2023/05/12 04:46:21;;;;;;;10.98;5.50;;;;;;;11.18;100.00;102186.31;5056803;28;20056;-93
2023/05/12 04:49:01;;;;;;;10.85;5.30;;;;;;;11.33;100.00;102214.06;5057238;28;20103;-93
2023/05/12 04:51:43;;;;;;;13.60;6.13;;;;;;;11.02;100.00;102166.50;5041923;28;20074;-93
2023/05/12 04:54:23;;;;;;;11.57;5.57;;;;;;;11.11;100.00;102173.34;5056190;28;20075;-94
2023/05/12 04:57:04;;;;;;;12.07;5.13;;;;;;;10.99;100.00;102180.50;5055899;28;20060;-93
2023/05/12 04:59:45;;;;;;;11.55;5.68;;;;;;;11.29;100.00;102222.00;5056500;28;20107;-94
2023/05/12 05:02:26;;;;;;;10.70;5.55;;;;;;;11.41;100.00;102227.03;5055191;28;20060;-95
2023/05/12 05:05:07;;;;;;;10.05;5.53;;;;;;;11.25;100.00;102197.56;5035281;28;20084;-93
2023/05/12 05:07:48;;;;;;;13.30;7.15;;;;;;;11.17;100.00;102183.72;5033598;28;20057;-94
2023/05/12 05:10:28;;;;;;;11.48;5.53;;;;;;;11.21;100.00;102201.16;5053927;28;20056;-94
2023/05/12 05:12:58;;;;;;;10.82;5.72;;;;;;;11.35;100.00;102196.53;5053384;28;20053;-94
2023/05/12 05:15:39;;;;;;;10.57;4.53;;;;;;;11.53;100.00;102236.44;5086782;28;20045;-95
2023/05/12 05:18:20;;;;;;;11.43;5.55;;;;;;;11.11;100.00;102203.03;5085307;28;20107;-95
2023/05/12 05:21:01;;;;;;;9.57;4.55;;;;;;;11.33;100.00;102234.16;5057282;28;20049;-94
2023/05/12 05:23:42;;;;;;;10.10;4.97;;;;;;;11.12;100.00;102199.53;5056752;28;20049;-94
2023/05/12 05:26:23;;;;;;;10.18;5.07;;;;;;;11.14;100.00;102207.38;5055160;28;20052;-94
2023/05/12 05:29:05;;;;;;;9.40;4.65;;;;;;;11.20;100.00;102217.75;5084098;28;20052;-95
2023/05/12 05:31:45;;;;;;;16.13;6.28;;;;;;;11.09;100.00;102204.84;5055636;28;20041;-95
2023/05/12 05:34:26;;;;;;;10.50;5.28;;;;;;;11.04;100.00;102221.53;5055145;28;20491;-95
2023/05/12 05:37:07;;;;;;;9.10;4.38;;;;;;;11.04;100.00;102216.28;5055408;28;20052;-93
2023/05/12 05:39:48;;;;;;;13.77;6.18;;;;;;;11.15;100.00;102223.06;5069674;28;20081;-94
2023/05/12 05:42:28;;;;;;;11.68;5.43;;;;;;;11.06;100.00;102225.84;5072119;28;20048;-94
2023/05/12 05:45:09;;;;;;;11.02;5.70;;;;;;;11.06;100.00;102225.84;5056890;28;20060;-95
2023/05/12 05:47:52;;;;;;;10.48;5.07;;;;;;;11.27;100.00;102273.59;5081332;28;20049;-93
2023/05/12 05:50:19;;;;;;;10.98;5.00;;;;;;;11.19;100.00;102253.59;5066053;28;20049;-92
2023/05/12 05:53:00;;;;;;;9.32;4.18;;;;;;;11.13;100.00;102245.81;5047630;28;20063;-91
2023/05/12 05:55:40;;;;;;;14.27;5.30;;;;;;;10.98;100.00;102230.34;5054981;28;20056;-94
2023/05/12 05:58:21;;;;;;;10.95;5.63;;;;;;;11.20;100.00;102268.44;5056204;28;20035;-95
2023/05/12 06:01:03;;;;;;;12.07;6.30;;;;;;;11.18;100.00;102261.50;5071097;28;20104;-85
2023/05/12 06:03:30;;;;;;;12.32;6.72;;;;;;;11.21;100.00;102264.06;5064588;28;20106;-94
2023/05/12 06:06:10;;;;;;;11.80;6.18;;;;;;;11.20;100.00;102271.06;5049931;28;20052;-93
2023/05/12 06:08:38;;;;;;;10.77;5.72;;;;;;;11.22;100.00;102260.53;5051191;28;20067;-92
2023/05/12 06:11:06;;;;;;;13.07;6.90;;;;;;;11.13;100.00;102258.94;5084504;28;20053;-91
2023/05/12 06:13:32;;;;;;;11.50;7.05;;;;;;;11.17;100.00;102255.41;5054358;28;20084;-93
2023/05/12 06:15:59;;;;;;;12.20;6.63;;;;;;;10.92;100.00;102228.66;5088511;28;20135;-92
2023/05/12 06:18:26;;;;;;;11.55;6.00;;;;;;;11.35;100.00;102290.06;5046107;28;20060;-91
2023/05/12 06:20:53;;;;;;;10.95;5.53;;;;;;;11.10;100.00;102235.41;5060955;28;20049;-91
2023/05/12 06:23:20;;;;;;;13.55;6.10;;;;;;;11.24;100.00;102265.78;5047233;28;20043;-91
2023/05/12 06:25:48;;;;;;;11.30;5.80;;;;;;;11.26;100.00;102259.63;5056394;28;20049;-93
2023/05/12 06:28:16;;;;;;;10.80;5.32;;;;;;;11.23;100.00;102236.06;5052624;28;20049;-87
2023/05/12 06:30:43;;;;;;;14.20;6.00;;;;;;;11.25;100.00;102239.53;5059059;28;20053;-90
2023/05/12 06:33:10;;;;;;;12.25;6.13;;;;;;;11.48;100.00;102252.25;5055531;28;20041;-89
2023/05/12 06:35:36;;;;;;;10.15;4.93;;;;;;;11.46;100.00;102259.28;5038496;28;20445;-90
2023/05/12 06:38:03;;;;;;;12.00;6.25;;;;;;;11.70;100.00;102297.34;5046525;28;20045;-90
2023/05/12 06:40:31;;;;;;;9.70;4.82;;;;;;;11.69;100.00;102298.25;5036478;28;20064;-90
2023/05/12 06:42:57;;;;;;;9.85;4.70;;;;;;;11.74;100.00;102292.94;5053447;28;20049;-90
2023/05/12 06:45:24;;;;;;;15.32;7.72;;;;;;;11.59;100.00;102292.28;5055601;28;20064;-90
2023/05/12 06:47:51;;;;;;;14.45;5.93;;;;;;;11.74;100.00;102295.56;5038489;28;20045;-91
2023/05/12 06:50:18;;;;;;;12.98;6.88;;;;;;;11.53;100.00;102271.41;5071610;28;20045;-91
2023/05/12 06:52:45;;;;;;;13.38;5.68;;;;;;;11.27;100.00;102229.03;5043720;28;20052;-90
2023/05/12 06:55:12;;;;;;;8.50;3.80;;;;;;;11.44;100.00;102233.97;5056060;28;20049;-90
2023/05/12 06:57:40;;;;;;;9.95;4.70;;;;;;;11.82;100.00;102293.63;5067969;28;20056;-92
2023/05/12 07:00:08;;;;;;;9.10;4.43;;;;;;;11.81;100.00;102263.06;5052786;28;20049;-91
2023/05/12 07:02:35;;;;;;;10.18;4.72;;;;;;;11.78;100.00;102266.59;5042010;28;20029;-91
2023/05/12 07:05:02;;;;;;;11.82;5.40;;;;;;;11.78;100.00;102284.94;5040191;28;20048;-91
2023/05/12 07:07:29;;;;;;;9.23;4.28;;;;;;;11.55;100.00;102232.03;5049567;28;20051;-91
2023/05/12 07:09:56;;;;;;;10.18;4.90;;;;;;;11.74;100.00;102258.81;5049031;28;20395;-90
2023/05/12 07:12:22;;;;;;;8.85;4.00;;;;;;;11.69;100.00;102244.91;5040159;28;20395;-91
2023/05/12 07:14:49;;;;;;;9.80;4.47;;;;;;;11.51;100.00;102225.09;5037491;28;20060;-91
2023/05/12 07:17:17;;;;;;;10.57;4.65;;;;;;;12.01;100.00;102309.94;5038973;28;20065;-91
2023/05/12 07:19:44;;;;;;;10.15;4.40;;;;;;;11.98;100.00;102296.03;5055790;28;20052;-91
2023/05/12 07:22:10;;;;;;;8.77;4.07;;;;;;;11.92;100.00;102276.00;5038652;28;20388;-90
2023/05/12 07:24:40;;;;;;;8.25;4.10;;;;;;;11.58;100.00;102247.72;5042126;28;20048;-90
2023/05/12 07:27:07;;;;;;;7.20;3.00;;;;;;;11.67;100.00;102273.78;5052017;28;20060;-90
2023/05/12 07:29:34;;;;;;;6.93;2.53;;;;;;;11.34;100.00;102251.63;5038582;28;20045;-91
2023/05/12 07:32:01;;;;;;;6.82;2.22;;;;;;;11.82;100.00;102326.91;5034863;28;20400;-91
2023/05/12 07:34:28;;;;;;;5.40;1.92;;;;;;;11.35;100.00;102283.06;5032642;28;20107;-91
2023/05/12 07:36:55;;;;;;;4.32;1.75;;;;;;;11.68;100.00;102298.25;5071811;28;20041;-90
2023/05/12 07:39:22;;;;;;;7.68;2.22;;;;;;;11.88;100.00;102314.53;5039216;28;20049;-91
2023/05/12 07:41:50;;;;;;;6.57;2.78;;;;;;;11.81;100.00;102278.81;5038114;28;20048;-91
2023/05/12 07:44:17;;;;;;;4.97;1.75;;;;;;;12.17;100.00;102314.94;5034588;28;20141;-93
2023/05/12 07:46:44;;;;;;;6.80;2.05;;;;;;;11.91;100.00;102279.50;5019650;28;20092;-91
2023/05/12 07:49:11;;;;;;;5.80;2.17;;;;;;;12.14;100.00;102314.06;5059872;28;20143;-91
2023/05/12 07:51:38;;;;;;;4.32;1.80;;;;;;;12.19;100.00;102307.88;5060568;28;20460;-90
2023/05/12 07:54:06;;;;;;;5.32;2.03;;;;;;;11.83;100.00;102268.25;5058398;28;20064;-88
2023/05/12 07:56:33;;;;;;;5.75;2.30;;;;;;;12.24;100.00;102306.88;5047764;28;20496;-90
2023/05/12 07:59:00;;;;;;;4.90;1.98;;;;;;;12.17;100.00;102309.69;5044067;28;20059;-89
2023/05/12 08:01:26;;;;;;;4.95;1.85;;;;;;;12.33;100.00;102308.47;5067699;28;20056;-90
2023/05/12 08:03:53;;;;;;;7.35;2.53;;;;;;;12.22;100.00;102305.19;5038156;28;20049;-90
2023/05/12 08:06:20;;;;;;;6.97;2.63;;;;;;;12.31;100.00;102305.00;5039830;28;20059;-90
2023/05/12 08:08:47;;;;;;;7.60;2.53;;;;;;;12.21;100.00;102306.94;5039616;28;20079;-90
2023/05/12 08:11:14;;;;;;;5.93;2.08;;;;;;;12.03;100.00;102279.28;5052065;28;20387;-90
2023/05/12 08:13:41;;;;;;;11.05;3.40;;;;;;;12.25;100.00;102323.50;5037394;28;20052;-89
2023/05/12 08:16:07;;;;;;;9.02;3.03;;;;;;;12.14;100.00;102284.31;5037862;28;20507;-89
2023/05/12 08:18:34;;;;;;;7.15;2.55;;;;;;;12.25;100.00;102316.50;5040595;28;20044;-89
2023/05/12 08:21:01;;;;;;;6.13;2.10;;;;;;;12.19;100.00;102308.72;5038568;28;20046;-89
2023/05/12 08:23:28;;;;;;;6.78;2.40;;;;;;;12.47;100.00;102314.31;5023209;28;20057;-88
2023/05/12 08:25:55;;;;;;;7.00;2.42;;;;;;;12.14;100.00;102290.44;5040267;28;20052;-88
2023/05/12 08:28:22;;;;;;;7.78;2.63;;;;;;;12.40;100.00;102325.84;5053366;28;20052;-89
2023/05/12 08:30:48;;;;;;;9.63;3.40;;;;;;;12.38;100.00;102306.63;5039082;28;20060;-88
2023/05/12 08:33:15;;;;;;;9.50;3.55;;;;;;;12.21;100.00;102295.59;5056143;28;20053;-89
2023/05/12 08:35:42;;;;;;;10.10;3.53;;;;;;;12.11;100.00;102290.53;5056016;28;20045;-89
2023/05/12 08:38:09;;;;;;;9.55;3.25;;;;;;;12.50;100.00;102353.66;5038364;28;20059;-89
2023/05/12 08:41:15;;;;;;;8.23;2.83;;;;;;;12.45;100.00;102346.78;5046305;28;20048;-89
2023/05/12 08:44:01;;;;;;;7.47;2.30;;;;;;;12.12;100.00;102291.38;5055901;28;20424;-89
2023/05/12 08:46:30;;;;;;;7.03;2.60;;;;;;;12.39;100.00;102336.38;5042520;28;20132;-89
2023/05/12 08:49:00;;;;;;;7.32;2.40;;;;;;;12.54;100.00;102344.81;5049075;28;20093;-88
2023/05/12 08:51:30;;;;;;;8.77;2.65;;;;;;;12.17;100.00;102302.66;5039134;28;20053;-89
2023/05/12 08:53:57;;;;;;;8.30;2.70;;;;;;;12.43;100.00;102312.66;5062857;28;20048;-89
2023/05/12 08:56:25;;;;;;;6.35;2.42;;;;;;;12.33;100.00;102300.59;5065428;28;20406;-89
2023/05/12 08:59:12;;;;;;;6.57;2.33;;;;;;;12.46;100.00;102332.72;5020821;28;20077;-89
2023/05/12 09:01:41;;;;;;;5.80;2.28;;;;;;;12.32;100.00;102298.84;5022662;28;20049;-88
2023/05/12 09:04:08;;;;;;;6.20;2.17;;;;;;;12.71;100.00;102356.72;5017991;28;20050;-88
2023/05/12 09:06:36;;;;;;;7.70;2.67;;;;;;;12.44;100.00;102306.47;5018163;28;20049;-89
2023/05/12 09:09:02;;;;;;;6.32;2.20;;;;;;;12.84;100.00;102331.94;5027903;28;20067;-88
2023/05/12 09:11:29;;;;;;;7.05;2.60;;;;;;;12.57;100.00;102307.13;5051209;28;20491;-88
2023/05/12 09:14:03;;;;;;;6.95;2.38;;;;;;;12.94;100.00;102350.13;5017831;28;20025;-89
2023/05/12 09:16:49;;;;;;;6.93;2.33;;;;;;;12.79;100.00;102348.72;5021619;28;20049;-88
2023/05/12 09:19:20;;;;;;;5.50;1.92;;;;;;;12.75;100.00;102357.53;5039531;28;20102;-89
2023/05/12 09:21:47;;;;;;;5.60;2.00;;;;;;;12.47;100.00;102311.69;5039107;28;20084;-89
2023/05/12 09:24:14;;;;;;;6.18;1.80;;;;;;;12.71;100.00;102327.81;5039946;28;20048;-88
2023/05/12 09:26:49;;;;;;;6.95;1.85;;;;;;;13.02;100.00;102364.84;5037779;28;20407;-88
2023/05/12 09:29:16;;;;;;;5.07;1.75;;;;;;;13.03;100.00;102350.81;5064921;28;20056;-89
2023/05/12 09:31:57;;;;;;;4.72;1.60;;;;;;;13.07;100.00;102368.25;5068368;28;20048;-89
2023/05/12 09:34:35;;;;;;;6.03;2.08;;;;;;;12.59;100.00;102314.94;5028877;28;20395;-89
2023/05/12 09:37:04;;;;;;;6.50;2.20;;;;;;;12.98;100.00;102359.66;5036027;28;20041;-88
2023/05/12 09:39:31;;;;;;;5.13;1.77;;;;;;;13.11;100.00;102359.38;5039055;28;20049;-89
2023/05/12 09:41:58;;;;;;;4.43;1.58;;;;;;;13.01;100.00;102352.59;5038811;28;20053;-89
2023/05/12 09:44:28;;;;;;;5.32;1.50;;;;;;;13.19;100.00;102334.66;5038204;28;20056;-89
2023/05/12 09:46:54;;;;;;;3.28;1.40;;;;;;;13.30;100.00;102369.50;5071962;28;20053;-89
2023/05/12 09:49:26;;;;;;;4.30;1.73;;;;;;;13.53;100.00;102389.16;5038399;28;20124;-88
2023/05/12 09:51:57;;;;;;;5.47;1.80;;;;;;;13.13;100.00;102353.22;5038434;28;20055;-88
2023/05/12 09:54:26;;;;;;;5.57;1.70;;;;;;;13.44;100.00;102372.69;5037710;28;20110;-89
2023/05/12 09:56:58;;;;;;;5.38;1.95;;;;;;;13.36;100.00;102361.47;5037946;28;20049;-89
2023/05/12 09:59:37;;;;;;;5.45;1.70;;;;;;;13.67;100.00;102398.47;5023609;28;20085;-89
2023/05/12 10:02:08;;;;;;;7.43;2.55;;;;;;;13.60;100.00;102401.28;5036688;28;20053;-89
2023/05/12 10:04:49;;;;;;;5.68;1.60;;;;;;;13.30;100.00;102356.34;5037528;28;20412;-88
2023/05/12 10:07:21;;;;;;;5.78;1.90;;;;;;;13.64;100.00;102403.78;5038182;28;20049;-88
2023/05/12 10:09:48;;;;;;;5.72;1.63;;;;;;;13.62;100.00;102402.13;5038676;28;20053;-89
2023/05/12 10:12:16;;;;;;;7.10;1.60;;;;;;;13.26;100.00;102339.78;5055504;28;20060;-89
2023/05/12 10:14:43;;;;;;;5.25;1.85;;;;;;;13.46;100.00;102352.47;5035990;28;20072;-89
2023/05/12 10:17:11;;;;;;;9.68;2.65;;;;;;;13.09;100.00;102318.25;5071968;28;20047;-88
2023/05/12 10:19:40;;;;;;;8.02;2.22;;;;;;;13.49;100.00;102372.56;5039051;28;20068;-88
2023/05/12 10:22:10;;;;;;;6.75;2.20;;;;;;;13.36;100.00;102365.88;5024544;28;20053;-89
2023/05/12 10:24:38;;;;;;;5.47;1.70;;;;;;;13.67;100.00;102419.53;5037695;28;20053;-88
2023/05/12 10:27:06;;;;;;;6.65;1.95;;;;;;;13.71;100.00;102408.94;5038182;28;20053;-89
2023/05/12 10:29:34;;;;;;;5.53;1.63;;;;;;;13.68;100.00;102379.13;5071255;28;20049;-89
2023/05/12 10:32:01;;;;;;;4.45;1.42;;;;;;;13.77;100.00;102414.03;5067242;28;20130;-89
2023/05/12 10:34:36;;;;;;;5.50;1.92;;;;;;;13.67;100.00;102419.53;5033041;28;20053;-89
2023/05/12 10:37:09;;;;;;;4.50;1.50;;;;;;;13.31;100.00;102379.13;5053742;28;20049;-88
2023/05/12 10:39:46;;;;;;;4.80;1.63;;;;;;;13.65;100.00;102405.53;5037773;28;20603;-89
2023/05/12 10:42:16;;;;;;;5.03;1.70;;;;;;;13.46;100.00;102384.03;5038032;28;20059;-88
2023/05/12 10:44:55;;;;;;;7.00;2.38;;;;;;;13.81;100.00;102431.47;5037431;28;20475;-88
2023/05/12 10:47:35;;;;;;;8.60;3.47;;;;;;;13.34;100.00;102384.34;5038609;28;20049;-89
2023/05/12 10:50:03;;;;;;;5.75;1.88;;;;;;;13.33;100.00;102384.38;5038953;28;20049;-88
2023/05/12 10:52:29;;;;;;;6.95;2.00;;;;;;;13.64;100.00;102431.91;5037825;28;20126;-89
2023/05/12 10:55:01;;;;;;;4.65;1.77;;;;;;;13.43;100.00;102360.44;5041210;28;20075;-89
2023/05/12 10:57:29;;;;;;;9.30;2.72;;;;;;;13.71;100.00;102430.84;5052619;28;20169;-89
2023/05/12 10:59:58;;;;;;;6.43;1.73;;;;;;;14.03;100.00;102442.38;5038137;28;20056;-90
2023/05/12 11:02:29;;;;;;;5.00;1.85;;;;;;;13.51;100.00;102376.06;5037482;28;20045;-88
2023/05/12 11:05:02;;;;;;;4.57;1.45;;;;;;;13.78;100.00;102432.44;5049702;28;20045;-89
2023/05/12 11:07:32;;;;;;;7.10;2.35;;;;;;;13.77;100.00;102411.41;5046021;28;20388;-90
2023/05/12 11:10:02;;;;;;;5.32;1.90;;;;;;;13.34;100.00;102371.19;5034536;28;20045;-89
2023/05/12 11:12:34;;;;;;;4.63;1.60;;;;;;;13.35;100.00;102409.75;5028469;28;20049;-89
2023/05/12 11:15:03;;;;;;;7.15;2.47;;;;;;;13.32;100.00;102369.50;5035909;28;20854;-89
2023/05/12 11:17:30;;;;;;;5.03;1.73;;;;;;;13.43;100.00;102378.00;5054399;28;20060;-89
2023/05/12 11:19:59;;;;;;;6.60;1.88;;;;;;;13.73;100.00;102396.59;5054825;28;20078;-88
2023/05/12 11:22:27;;;;;;;7.50;2.55;;;;;;;13.78;100.00;102366.63;5054024;28;20056;-89
2023/05/12 11:24:54;;;;;;;6.00;2.13;;;;;;;13.87;100.00;102386.59;5053028;28;20049;-89
2023/05/12 11:27:21;;;;;;;9.23;2.33;;;;;;;14.09;100.00;102434.28;5037447;28;20053;-89
2023/05/12 11:30:01;;;;;;;8.57;3.00;;;;;;;13.82;100.00;102444.59;5070472;28;20135;-89
2023/05/12 11:32:28;;;;;;;8.32;2.10;;;;;;;13.96;100.00;102436.38;5024736;28;20049;-88
2023/05/12 11:35:18;;;;;;;8.77;3.00;;;;;;;13.91;100.00;102392.63;5039825;28;20051;-88
2023/05/12 11:37:45;;;;;;;7.47;1.90;;;;;;;13.91;100.00;102395.28;5044662;28;20049;-88
2023/05/12 11:40:17;;;;;;;6.45;2.08;;;;;;;13.95;100.00;102394.28;5070328;28;20060;-87
2023/05/12 11:42:54;;;;;;;8.13;2.22;;;;;;;14.16;100.00;102411.31;5048855;28;20048;-89
2023/05/12 11:45:29;;;;;;;8.35;3.17;;;;;;;14.27;100.00;102414.53;5065071;28;20045;-89
2023/05/12 11:48:10;;;;;;;14.07;5.10;;;;;;;14.07;100.00;102401.00;5035955;28;20052;-88